Time;durP1;ratioP1;P1;durP2;ratioP2;P2;SDS_P1;SDS_P2;PMS_P1;PMS_P2;Temp;Humidity;BMP_temperature;BMP_pressure;BME280_temperature;BME280_humidity;BME280_pressure;Samples;Min_cycle;Max_cycle;Signal;HPM_P1;HPM_P2
2022/08/27 00:00:43;;;;;;;27.47;19.90;;;;;;;;;;5093009;28;20629;-70
2022/08/27 00:03:10;;;;;;;24.57;18.13;;;;;;;;;;5092878;28;20454;-70
2022/08/27 00:05:38;;;;;;;26.03;17.33;;;;;;;;;;5093498;28;20464;-70
2022/08/27 00:08:05;;;;;;;18.80;15.90;;;;;;;;;;5092722;28;20489;-69
2022/08/27 00:10:33;;;;;;;22.33;17.03;;;;;;;;;;5092475;28;20889;-70
2022/08/27 00:13:00;;;;;;;27.60;18.57;;;;;;;;;;5091834;28;20444;-70
2022/08/27 00:15:28;;;;;;;21.67;15.43;;;;;;;;;;5092544;28;20512;-70
2022/08/27 00:17:55;;;;;;;24.93;17.20;;;;;;;;;;5093346;28;20482;-70
2022/08/27 00:20:24;;;;;;;33.77;18.10;;;;;;;;;;5093414;28;20549;-70
2022/08/27 00:22:52;;;;;;;36.83;19.57;;;;;;;;;;5093728;28;20983;-69
2022/08/27 00:25:22;;;;;;;24.67;17.80;;;;;;;;;;5093594;28;20746;-70
2022/08/27 00:27:52;;;;;;;27.07;18.47;;;;;;;;;;5092930;28;20451;-70
2022/08/27 00:30:20;;;;;;;28.13;18.27;;;;;;;;;;5093213;28;20838;-70
2022/08/27 00:32:49;;;;;;;26.53;18.77;;;;;;;;;;5092067;28;20471;-70
2022/08/27 00:35:17;;;;;;;30.23;19.60;;;;;;;;;;5092324;28;20451;-71
2022/08/27 00:37:44;;;;;;;28.87;19.97;;;;;;;;;;5093543;28;20448;-70
2022/08/27 00:40:13;;;;;;;25.47;18.20;;;;;;;;;;5092885;28;20668;-69
2022/08/27 00:42:41;;;;;;;27.53;17.87;;;;;;;;;;5092790;28;20464;-69
2022/08/27 00:45:08;;;;;;;30.83;19.80;;;;;;;;;;5092703;28;20447;-69
2022/08/27 00:47:37;;;;;;;30.57;19.80;;;;;;;;;;5093181;28;20509;-69
2022/08/27 00:50:07;;;;;;;34.33;20.47;;;;;;;;;;5093337;28;20440;-70
2022/08/27 00:52:35;;;;;;;27.23;18.60;;;;;;;;;;5093474;28;20512;-70
2022/08/27 00:55:06;;;;;;;30.17;21.13;;;;;;;;;;5092370;28;20439;-70
2022/08/27 00:57:38;;;;;;;27.50;18.37;;;;;;;;;;5092211;28;20663;-70
2022/08/27 01:00:06;;;;;;;28.90;18.43;;;;;;;;;;5092545;28;21142;-70
2022/08/27 01:02:33;;;;;;;38.00;23.40;;;;;;;;;;5092754;28;20447;-69
2022/08/27 01:05:02;;;;;;;37.57;23.53;;;;;;;;;;5092185;28;20946;-71
2022/08/27 01:07:32;;;;;;;36.90;23.23;;;;;;;;;;5095853;28;20475;-69
2022/08/27 01:10:02;;;;;;;43.83;25.13;;;;;;;;;;5095700;28;20554;-69
2022/08/27 01:12:30;;;;;;;36.37;25.90;;;;;;;;;;5096170;28;20544;-70
2022/08/27 01:14:58;;;;;;;37.20;22.43;;;;;;;;;;5095906;28;20741;-70
2022/08/27 01:17:25;;;;;;;39.57;24.07;;;;;;;;;;5095520;28;20947;-70
2022/08/27 01:19:54;;;;;;;41.70;23.00;;;;;;;;;;5095401;28;20491;-69
2022/08/27 01:22:28;;;;;;;38.00;22.00;;;;;;;;;;5095730;28;20455;-71
2022/08/27 01:24:57;;;;;;;31.00;21.90;;;;;;;;;;5095637;28;20524;-70
2022/08/27 01:27:26;;;;;;;33.40;20.67;;;;;;;;;;5095028;28;20487;-69
2022/08/27 01:29:53;;;;;;;32.53;21.47;;;;;;;;;;5095225;28;20925;-70
2022/08/27 01:32:22;;;;;;;37.20;22.17;;;;;;;;;;5095739;28;21100;-70
2022/08/27 01:34:49;;;;;;;32.63;19.97;;;;;;;;;;5096060;28;20458;-69
2022/08/27 01:37:17;;;;;;;35.87;21.90;;;;;;;;;;5095355;28;20479;-69
2022/08/27 01:39:44;;;;;;;32.07;20.40;;;;;;;;;;5096113;28;20478;-70
2022/08/27 01:42:15;;;;;;;33.70;20.00;;;;;;;;;;5095416;28;20451;-69
2022/08/27 01:44:47;;;;;;;27.80;21.17;;;;;;;;;;5095751;28;20447;-70
2022/08/27 01:47:14;;;;;;;31.50;19.00;;;;;;;;;;5096436;28;20479;-70
2022/08/27 01:49:41;;;;;;;31.73;19.30;;;;;;;;;;5094822;28;20451;-70
2022/08/27 01:52:08;;;;;;;26.97;19.33;;;;;;;;;;5094709;28;20524;-70
2022/08/27 01:54:35;;;;;;;29.30;19.80;;;;;;;;;;5094983;28;20468;-70
2022/08/27 01:57:02;;;;;;;31.80;20.53;;;;;;;;;;5095310;28;20460;-70
2022/08/27 01:59:30;;;;;;;27.53;17.80;;;;;;;;;;5093316;28;20475;-70
2022/08/27 02:01:58;;;;;;;31.67;20.57;;;;;;;;;;5095704;28;20528;-70
2022/08/27 02:04:25;;;;;;;34.63;22.23;;;;;;;;;;5095070;28;20465;-70
2022/08/27 02:06:52;;;;;;;34.70;22.00;;;;;;;;;;5095027;28;20529;-70
2022/08/27 02:09:19;;;;;;;35.30;21.77;;;;;;;;;;5095582;28;20444;-70
2022/08/27 02:11:47;;;;;;;35.47;20.30;;;;;;;;;;5095425;28;20528;-70
2022/08/27 02:14:14;;;;;;;31.90;22.20;;;;;;;;;;5095804;28;20455;-70
2022/08/27 02:16:53;;;;;;;34.50;20.33;;;;;;;;;;5099101;28;20460;-70
2022/08/27 02:19:20;;;;;;;33.43;22.03;;;;;;;;;;5094667;28;20541;-70
2022/08/27 02:21:48;;;;;;;37.27;20.93;;;;;;;;;;5094210;28;20838;-70
2022/08/27 02:24:15;;;;;;;36.93;22.67;;;;;;;;;;5095350;28;20444;-69
2022/08/27 02:26:46;;;;;;;35.10;20.33;;;;;;;;;;5095535;28;20470;-69
2022/08/27 02:29:13;;;;;;;34.70;23.33;;;;;;;;;;5094617;28;20452;-70
2022/08/27 02:31:40;;;;;;;31.13;21.33;;;;;;;;;;5095570;28;20472;-70
2022/08/27 02:34:09;;;;;;;37.43;21.50;;;;;;;;;;5112465;28;20514;-70
2022/08/27 02:36:37;;;;;;;39.03;21.33;;;;;;;;;;5115664;28;20530;-70
2022/08/27 02:39:05;;;;;;;30.70;20.10;;;;;;;;;;5115058;28;20487;-70
2022/08/27 02:41:32;;;;;;;28.77;20.37;;;;;;;;;;5114891;28;20456;-70
2022/08/27 02:44:00;;;;;;;35.73;22.00;;;;;;;;;;5115077;28;20459;-70
2022/08/27 02:46:32;;;;;;;34.87;20.63;;;;;;;;;;5115897;28;20455;-70
2022/08/27 02:49:00;;;;;;;29.93;20.10;;;;;;;;;;5114896;28;20459;-70
2022/08/27 02:51:28;;;;;;;31.70;20.37;;;;;;;;;;5116038;28;20455;-69
2022/08/27 02:53:55;;;;;;;41.17;21.50;;;;;;;;;;5115797;28;20439;-70
2022/08/27 02:56:22;;;;;;;32.47;20.20;;;;;;;;;;5115139;28;20498;-70
2022/08/27 02:58:52;;;;;;;37.73;21.20;;;;;;;;;;5103573;28;20447;-70
2022/08/27 03:01:20;;;;;;;34.87;21.33;;;;;;;;;;5094132;28;20451;-70
2022/08/27 03:03:47;;;;;;;37.27;19.97;;;;;;;;;;5095037;28;20849;-70
2022/08/27 03:06:14;;;;;;;38.90;22.23;;;;;;;;;;5094787;28;20550;-70
2022/08/27 03:08:42;;;;;;;30.37;21.17;;;;;;;;;;5094739;28;20726;-70
2022/08/27 03:11:09;;;;;;;31.00;19.13;;;;;;;;;;5094804;28;20703;-69
2022/08/27 03:13:37;;;;;;;34.83;19.80;;;;;;;;;;5094371;28;20459;-70
2022/08/27 03:16:04;;;;;;;35.43;20.80;;;;;;;;;;5095117;28;20849;-70
2022/08/27 03:18:32;;;;;;;26.50;18.73;;;;;;;;;;5093971;28;20424;-70
2022/08/27 03:20:59;;;;;;;33.40;20.07;;;;;;;;;;5094436;28;20487;-70
2022/08/27 03:23:27;;;;;;;31.63;17.93;;;;;;;;;;5094291;28;20443;-70
2022/08/27 03:25:56;;;;;;;32.70;19.93;;;;;;;;;;5094689;28;20455;-70
2022/08/27 03:28:28;;;;;;;31.70;21.23;;;;;;;;;;5094627;28;20444;-70
2022/08/27 03:30:57;;;;;;;36.20;20.63;;;;;;;;;;5094690;28;20535;-70
2022/08/27 03:33:25;;;;;;;35.53;22.27;;;;;;;;;;5094667;28;20452;-70
2022/08/27 03:35:53;;;;;;;35.57;24.10;;;;;;;;;;5095484;28;20459;-70
2022/08/27 03:38:21;;;;;;;34.90;22.50;;;;;;;;;;5094156;28;20462;-69
2022/08/27 03:40:48;;;;;;;37.60;23.00;;;;;;;;;;5093415;28;20644;-70
2022/08/27 03:43:17;;;;;;;39.53;23.40;;;;;;;;;;5094845;28;20873;-69
2022/08/27 03:45:44;;;;;;;37.80;21.90;;;;;;;;;;5071289;28;20550;-71
2022/08/27 03:48:12;;;;;;;44.73;24.87;;;;;;;;;;5072525;28;20456;-70
2022/08/27 03:50:40;;;;;;;42.43;25.50;;;;;;;;;;5072936;28;20727;-70
2022/08/27 03:53:07;;;;;;;41.00;25.50;;;;;;;;;;5073096;28;20456;-70
2022/08/27 03:55:34;;;;;;;45.73;25.10;;;;;;;;;;5072706;28;20444;-70
2022/08/27 03:58:01;;;;;;;49.17;26.27;;;;;;;;;;5072023;28;20449;-70
2022/08/27 04:00:29;;;;;;;41.50;22.37;;;;;;;;;;5072085;28;20510;-69
2022/08/27 04:02:57;;;;;;;44.27;26.93;;;;;;;;;;5071919;28;20452;-69
2022/08/27 04:05:24;;;;;;;44.13;25.07;;;;;;;;;;5072071;28;20448;-69
2022/08/27 04:07:51;;;;;;;48.67;27.87;;;;;;;;;;5072110;28;20664;-69
2022/08/27 04:10:18;;;;;;;48.77;24.70;;;;;;;;;;5081306;28;20821;-69
2022/08/27 04:12:45;;;;;;;36.97;23.57;;;;;;;;;;5093788;28;20443;-69
2022/08/27 04:15:13;;;;;;;44.80;25.30;;;;;;;;;;5093537;28;20443;-69
2022/08/27 04:17:41;;;;;;;44.13;23.50;;;;;;;;;;5093666;28;20781;-69
2022/08/27 04:20:09;;;;;;;31.60;22.17;;;;;;;;;;5092880;28;20999;-69
2022/08/27 04:22:37;;;;;;;37.90;24.23;;;;;;;;;;5093639;28;20460;-69
2022/08/27 04:25:04;;;;;;;41.60;25.20;;;;;;;;;;5093169;28;21144;-69
2022/08/27 04:27:31;;;;;;;36.57;24.40;;;;;;;;;;5093206;28;20456;-69
2022/08/27 04:30:00;;;;;;;35.97;24.10;;;;;;;;;;5093025;28;20896;-69
2022/08/27 04:32:27;;;;;;;34.20;21.80;;;;;;;;;;5093509;28;20456;-69
2022/08/27 04:34:56;;;;;;;42.73;23.00;;;;;;;;;;5092878;28;20466;-69
2022/08/27 04:37:24;;;;;;;38.97;20.83;;;;;;;;;;5092866;28;20548;-69
2022/08/27 04:39:51;;;;;;;35.33;21.77;;;;;;;;;;5093760;28;20480;-70
2022/08/27 04:42:19;;;;;;;41.57;22.60;;;;;;;;;;5097449;28;20896;-69
2022/08/27 04:44:47;;;;;;;28.70;20.33;;;;;;;;;;5096393;28;20745;-70
2022/08/27 04:47:20;;;;;;;36.23;22.97;;;;;;;;;;5097238;28;21016;-69
2022/08/27 04:49:47;;;;;;;34.67;20.50;;;;;;;;;;5097104;28;20462;-69
2022/08/27 04:52:15;;;;;;;32.50;21.40;;;;;;;;;;5096405;28;20443;-69
2022/08/27 04:54:48;;;;;;;34.03;18.97;;;;;;;;;;5096384;28;20467;-70
2022/08/27 04:57:15;;;;;;;36.30;22.30;;;;;;;;;;5096038;28;20542;-69
2022/08/27 04:59:43;;;;;;;31.93;18.70;;;;;;;;;;5096097;28;20475;-70
2022/08/27 05:02:10;;;;;;;40.40;20.43;;;;;;;;;;5096498;28;20435;-70
2022/08/27 05:04:38;;;;;;;35.57;22.47;;;;;;;;;;5095948;28;20463;-69
2022/08/27 05:07:06;;;;;;;36.17;22.50;;;;;;;;;;5096815;28;20444;-69
2022/08/27 05:09:36;;;;;;;36.83;19.60;;;;;;;;;;5095185;28;20465;-69
2022/08/27 05:12:03;;;;;;;37.00;20.70;;;;;;;;;;5096140;28;20455;-69
2022/08/27 05:14:31;;;;;;;36.60;21.27;;;;;;;;;;5096200;28;20465;-70
2022/08/27 05:16:58;;;;;;;30.70;22.00;;;;;;;;;;5096433;28;20440;-70
2022/08/27 05:19:25;;;;;;;34.80;20.50;;;;;;;;;;5096136;28;20490;-70
2022/08/27 05:21:53;;;;;;;34.93;22.07;;;;;;;;;;5095736;28;20458;-70
2022/08/27 05:24:20;;;;;;;38.60;22.77;;;;;;;;;;5095913;28;20498;-70
2022/08/27 05:26:48;;;;;;;41.90;24.07;;;;;;;;;;5095976;28;20444;-70
2022/08/27 05:29:15;;;;;;;40.70;24.83;;;;;;;;;;5095738;28;20465;-70
2022/08/27 05:31:43;;;;;;;51.63;24.40;;;;;;;;;;5095032;28;20462;-70
2022/08/27 05:34:10;;;;;;;42.77;22.57;;;;;;;;;;5095686;28;20448;-71
2022/08/27 05:36:39;;;;;;;39.83;22.67;;;;;;;;;;5095191;28;20451;-70
2022/08/27 05:39:06;;;;;;;48.53;24.37;;;;;;;;;;5096060;28;20451;-70
2022/08/27 05:41:34;;;;;;;39.83;22.27;;;;;;;;;;5095392;28;20916;-70
2022/08/27 05:44:03;;;;;;;48.10;24.70;;;;;;;;;;5095591;28;20451;-70
2022/08/27 05:46:30;;;;;;;44.57;23.40;;;;;;;;;;5096114;28;20455;-71
2022/08/27 05:48:58;;;;;;;34.80;22.43;;;;;;;;;;5095290;28;20486;-70
2022/08/27 05:51:27;;;;;;;37.73;19.73;;;;;;;;;;5094521;28;20843;-70
2022/08/27 05:53:58;;;;;;;35.07;21.00;;;;;;;;;;5094765;28;20451;-70
2022/08/27 05:56:27;;;;;;;34.77;19.80;;;;;;;;;;5096041;28;20455;-70
2022/08/27 06:01:46;;;;;;;34.90;21.40;;;;;;;;;;5093763;28;20462;-70
2022/08/27 06:04:17;;;;;;;33.93;19.13;;;;;;;;;;5092577;28;20474;-70
2022/08/27 06:06:44;;;;;;;41.70;21.23;;;;;;;;;;5093342;28;20787;-70
2022/08/27 06:09:15;;;;;;;43.10;24.30;;;;;;;;;;5093599;28;20459;-70
2022/08/27 06:11:43;;;;;;;40.67;22.37;;;;;;;;;;5094246;28;20459;-70
2022/08/27 06:14:10;;;;;;;42.70;24.97;;;;;;;;;;5093176;28;20584;-70
2022/08/27 06:16:38;;;;;;;32.93;23.63;;;;;;;;;;5094162;28;20742;-70
2022/08/27 06:19:07;;;;;;;40.53;25.10;;;;;;;;;;5093838;28;20962;-70
2022/08/27 06:21:35;;;;;;;42.17;24.47;;;;;;;;;;5094067;28;20881;-70
2022/08/27 06:24:02;;;;;;;43.70;27.83;;;;;;;;;;5093692;28;20512;-70
2022/08/27 06:26:29;;;;;;;43.73;25.70;;;;;;;;;;5093580;28;20527;-70
2022/08/27 06:28:57;;;;;;;41.03;25.30;;;;;;;;;;5093842;28;21018;-70
2022/08/27 06:31:25;;;;;;;46.67;25.77;;;;;;;;;;5096069;28;21110;-70
2022/08/27 06:33:53;;;;;;;40.53;27.03;;;;;;;;;;5093513;28;20551;-69
2022/08/27 06:36:22;;;;;;;44.60;26.57;;;;;;;;;;5093144;28;20823;-70
2022/08/27 06:38:49;;;;;;;44.63;26.80;;;;;;;;;;5075571;28;20464;-69
2022/08/27 06:41:18;;;;;;;37.40;25.07;;;;;;;;;;5073396;28;20920;-69
2022/08/27 06:43:45;;;;;;;43.07;27.93;;;;;;;;;;5074850;28;20772;-70
2022/08/27 06:46:14;;;;;;;38.33;23.30;;;;;;;;;;5092487;28;20906;-70
2022/08/27 06:48:44;;;;;;;42.23;26.13;;;;;;;;;;5090234;28;20472;-70
2022/08/27 06:51:13;;;;;;;34.70;22.70;;;;;;;;;;5091994;28;20546;-70
2022/08/27 06:53:41;;;;;;;36.33;24.90;;;;;;;;;;5092431;28;20520;-70
2022/08/27 06:56:12;;;;;;;35.63;22.50;;;;;;;;;;5091312;28;20835;-71
2022/08/27 06:58:41;;;;;;;32.07;21.20;;;;;;;;;;5075598;28;20473;-69
2022/08/27 07:01:13;;;;;;;36.03;20.83;;;;;;;;;;5087578;28;21067;-70
2022/08/27 07:03:44;;;;;;;37.27;24.00;;;;;;;;;;5085610;28;20455;-70
2022/08/27 07:06:15;;;;;;;34.50;22.03;;;;;;;;;;5092003;28;20873;-71
2022/08/27 07:08:48;;;;;;;35.57;22.90;;;;;;;;;;5091956;28;20454;-71
2022/08/27 07:11:16;;;;;;;32.10;23.30;;;;;;;;;;5088756;28;20617;-70
2022/08/27 07:13:46;;;;;;;32.03;21.70;;;;;;;;;;5087730;28;20464;-70
2022/08/27 07:16:16;;;;;;;29.43;19.70;;;;;;;;;;5074199;28;21759;-70
2022/08/27 07:18:43;;;;;;;37.27;21.40;;;;;;;;;;5090678;28;20464;-70
2022/08/27 07:21:15;;;;;;;32.47;21.33;;;;;;;;;;5089915;28;20518;-71
2022/08/27 07:23:42;;;;;;;33.47;19.90;;;;;;;;;;5091865;28;20563;-70
2022/08/27 07:26:10;;;;;;;34.70;19.13;;;;;;;;;;5093784;28;20501;-70
2022/08/27 07:28:38;;;;;;;28.80;19.60;;;;;;;;;;5089998;28;20478;-70
2022/08/27 07:31:07;;;;;;;27.07;18.20;;;;;;;;;;5084912;28;20491;-70
2022/08/27 07:33:35;;;;;;;24.37;17.27;;;;;;;;;;5091140;28;20463;-70
2022/08/27 07:36:02;;;;;;;29.73;17.40;;;;;;;;;;5094342;28;20456;-70
2022/08/27 07:38:34;;;;;;;29.90;18.30;;;;;;;;;;5087137;28;20614;-70
2022/08/27 07:41:04;;;;;;;22.53;16.73;;;;;;;;;;5090107;28;20491;-71
2022/08/27 07:46:20;;;;;;;29.07;21.10;;;;;;;;;;5092696;28;20483;-69
2022/08/27 07:48:47;;;;;;;24.93;18.57;;;;;;;;;;5087157;28;20470;-70
2022/08/27 07:51:19;;;;;;;28.67;20.53;;;;;;;;;;5091277;28;20455;-69
2022/08/27 07:53:46;;;;;;;21.97;16.13;;;;;;;;;;5087197;28;20456;-69
2022/08/27 07:56:15;;;;;;;29.43;17.83;;;;;;;;;;5081585;28;20559;-70
2022/08/27 07:58:45;;;;;;;21.47;15.77;;;;;;;;;;5078205;28;20483;-69
2022/08/27 08:01:15;;;;;;;33.60;18.33;;;;;;;;;;5070886;28;20872;-69
2022/08/27 08:03:44;;;;;;;24.77;16.40;;;;;;;;;;5075330;28;20508;-70
2022/08/27 08:06:16;;;;;;;20.30;16.37;;;;;;;;;;5090692;28;20443;-69
2022/08/27 08:08:45;;;;;;;18.57;14.97;;;;;;;;;;5090553;28;20476;-71
2022/08/27 08:11:15;;;;;;;22.50;15.03;;;;;;;;;;5089278;28;20451;-70
2022/08/27 08:13:43;;;;;;;21.37;15.07;;;;;;;;;;5091125;28;20448;-70
2022/08/27 08:16:11;;;;;;;26.90;17.07;;;;;;;;;;5087562;28;20463;-69
2022/08/27 08:18:38;;;;;;;23.70;15.77;;;;;;;;;;5089444;28;20460;-69
2022/08/27 08:21:06;;;;;;;22.30;16.50;;;;;;;;;;5088729;28;20483;-69
2022/08/27 08:23:34;;;;;;;28.33;18.50;;;;;;;;;;5089457;28;20464;-69
2022/08/27 08:26:02;;;;;;;34.87;21.20;;;;;;;;;;5081239;28;20460;-70
2022/08/27 08:28:29;;;;;;;40.23;23.67;;;;;;;;;;5089278;28;20520;-70
2022/08/27 08:30:57;;;;;;;37.40;21.40;;;;;;;;;;5088886;28;20474;-71
2022/08/27 08:33:31;;;;;;;36.77;23.37;;;;;;;;;;5089217;28;20846;-71
2022/08/27 08:36:04;;;;;;;33.90;23.83;;;;;;;;;;5085833;28;20516;-70
2022/08/27 08:38:31;;;;;;;36.47;24.50;;;;;;;;;;5088327;28;20475;-70
2022/08/27 08:40:59;;;;;;;40.13;23.67;;;;;;;;;;5089232;28;20479;-70
2022/08/27 08:43:30;;;;;;;37.80;20.60;;;;;;;;;;5089361;28;20467;-69
2022/08/27 08:46:03;;;;;;;39.30;23.00;;;;;;;;;;5088432;28;20444;-70
2022/08/27 08:48:31;;;;;;;32.77;19.73;;;;;;;;;;5087666;28;20467;-70
2022/08/27 08:51:01;;;;;;;37.07;22.27;;;;;;;;;;5090230;28;20447;-69
2022/08/27 08:53:33;;;;;;;29.40;19.83;;;;;;;;;;5089469;28;20459;-70
2022/08/27 08:56:02;;;;;;;37.63;22.67;;;;;;;;;;5084352;27;20431;-70
2022/08/27 08:58:34;;;;;;;35.83;20.70;;;;;;;;;;5086528;28;21108;-70
2022/08/27 09:01:04;;;;;;;35.33;25.17;;;;;;;;;;5085349;28;20530;-72
2022/08/27 09:03:34;;;;;;;33.97;22.30;;;;;;;;;;5088099;28;20675;-69
2022/08/27 09:06:04;;;;;;;34.60;25.80;;;;;;;;;;5088452;28;20515;-70
2022/08/27 09:08:33;;;;;;;35.00;23.60;;;;;;;;;;5088125;27;20513;-69
2022/08/27 09:11:06;;;;;;;37.97;24.90;;;;;;;;;;5093650;27;20514;-69
2022/08/27 09:13:33;;;;;;;36.53;25.07;;;;;;;;;;5089291;28;20472;-69
2022/08/27 09:16:05;;;;;;;32.57;22.80;;;;;;;;;;5089071;28;20466;-69
2022/08/27 09:18:48;;;;;;;35.83;22.80;;;;;;;;;;5089112;28;20466;-69
2022/08/27 09:21:24;;;;;;;28.80;19.23;;;;;;;;;;5088995;28;20495;-70
2022/08/27 09:23:57;;;;;;;32.73;20.33;;;;;;;;;;5085636;28;21157;-70
2022/08/27 09:26:39;;;;;;;;;;;;;;;;;;;;;
2022/08/27 09:29:18;;;;;;;28.93;21.50;;;;;;;;;;5088866;28;20457;-70
2022/08/27 09:31:50;;;;;;;27.43;19.00;;;;;;;;;;5093350;28;20459;-69
2022/08/27 09:34:19;;;;;;;28.80;19.83;;;;;;;;;;5091837;28;20461;-69
2022/08/27 09:37:04;;;;;;;29.20;20.60;;;;;;;;;;5092243;27;21018;-70
2022/08/27 09:39:35;;;;;;;31.40;20.73;;;;;;;;;;5090456;28;20448;-70
2022/08/27 09:42:03;;;;;;;27.93;20.77;;;;;;;;;;5090783;28;20665;-70
2022/08/27 09:44:33;;;;;;;30.87;20.00;;;;;;;;;;5089799;28;20505;-70
2022/08/27 09:47:02;;;;;;;33.93;21.70;;;;;;;;;;5088010;28;20458;-70
2022/08/27 09:49:33;;;;;;;34.10;21.27;;;;;;;;;;5090560;28;20543;-69
2022/08/27 09:52:00;;;;;;;29.50;19.67;;;;;;;;;;5092412;28;20899;-70
2022/08/27 09:54:32;;;;;;;25.03;17.97;;;;;;;;;;5093018;28;20606;-69
2022/08/27 09:57:00;;;;;;;25.87;17.13;;;;;;;;;;5087800;28;20461;-70
2022/08/27 09:59:34;;;;;;;24.03;15.90;;;;;;;;;;5085227;28;20479;-70
2022/08/27 10:02:07;;;;;;;23.07;15.90;;;;;;;;;;5086970;28;20459;-70
2022/08/27 10:04:46;;;;;;;24.53;18.27;;;;;;;;;;5089876;28;20458;-70
2022/08/27 10:07:24;;;;;;;28.07;18.77;;;;;;;;;;5091916;28;20726;-70
2022/08/27 10:09:55;;;;;;;32.17;21.57;;;;;;;;;;5091767;28;20900;-70
2022/08/27 10:12:28;;;;;;;27.50;18.00;;;;;;;;;;5092116;28;20452;-71
2022/08/27 10:15:05;;;;;;;32.23;18.47;;;;;;;;;;5087125;28;20460;-69
2022/08/27 10:17:38;;;;;;;35.17;21.33;;;;;;;;;;5087020;28;20973;-71
2022/08/27 10:20:19;;;;;;;26.53;18.27;;;;;;;;;;5095211;28;20577;-71
2022/08/27 10:23:04;;;;;;;23.67;17.73;;;;;;;;;;5102227;28;20926;-69
2022/08/27 10:25:45;;;;;;;26.93;15.60;;;;;;;;;;5092084;28;20511;-70
2022/08/27 10:28:20;;;;;;;25.67;16.13;;;;;;;;;;5072563;28;20465;-70
2022/08/27 10:30:56;;;;;;;26.80;17.20;;;;;;;;;;5087105;28;20748;-69
2022/08/27 10:33:28;;;;;;;26.40;17.37;;;;;;;;;;5086276;28;20467;-70
2022/08/27 10:36:36;;;;;;;;;;;;;;;;;;;;;
2022/08/27 10:39:11;;;;;;;32.40;19.33;;;;;;;;;;5071251;28;20456;-70
2022/08/27 10:41:52;;;;;;;26.30;18.40;;;;;;;;;;5089460;28;20490;-70
2022/08/27 10:44:33;;;;;;;28.07;16.80;;;;;;;;;;5087180;28;20561;-71
2022/08/27 10:47:05;;;;;;;21.33;14.30;;;;;;;;;;5091383;28;20451;-69
2022/08/27 10:49:38;;;;;;;24.73;16.10;;;;;;;;;;5091259;28;20451;-70
2022/08/27 10:52:09;;;;;;;24.80;16.33;;;;;;;;;;5086891;28;20471;-69
2022/08/27 10:54:39;;;;;;;23.37;15.63;;;;;;;;;;5080099;28;20881;-69
2022/08/27 10:57:09;;;;;;;22.73;16.17;;;;;;;;;;5079856;28;20452;-69
2022/08/27 11:02:36;;;;;;;17.27;12.77;;;;;;;;;;5066859;28;20453;-70
2022/08/27 11:05:07;;;;;;;19.13;12.87;;;;;;;;;;5083175;28;20455;-70
2022/08/27 11:07:49;;;;;;;18.17;12.47;;;;;;;;;;5089693;28;20471;-70
2022/08/27 11:10:23;;;;;;;16.20;11.63;;;;;;;;;;5084582;28;20498;-72
2022/08/27 11:12:53;;;;;;;19.20;11.80;;;;;;;;;;5076261;28;21073;-71
2022/08/27 11:15:22;;;;;;;16.73;13.60;;;;;;;;;;5076512;28;20557;-69
2022/08/27 11:17:53;;;;;;;18.30;12.63;;;;;;;;;;5087278;28;20447;-71
2022/08/27 11:20:24;;;;;;;18.87;12.00;;;;;;;;;;5077003;28;20474;-69
2022/08/27 11:22:55;;;;;;;14.70;11.20;;;;;;;;;;5089029;28;20459;-69
2022/08/27 11:25:33;;;;;;;16.73;11.50;;;;;;;;;;5088345;28;20743;-69
2022/08/27 11:28:00;;;;;;;14.07;10.57;;;;;;;;;;5090190;28;20516;-69
2022/08/27 11:30:29;;;;;;;15.60;11.40;;;;;;;;;;5088221;28;20589;-71
2022/08/27 11:33:02;;;;;;;20.30;12.43;;;;;;;;;;5090203;28;20483;-69
2022/08/27 11:35:37;;;;;;;17.10;11.60;;;;;;;;;;5089043;28;20520;-69
2022/08/27 11:38:30;;;;;;;15.80;12.37;;;;;;;;;;5090849;28;20470;-70
2022/08/27 11:41:09;;;;;;;15.30;11.57;;;;;;;;;;5091067;28;20494;-70
2022/08/27 11:43:39;;;;;;;17.33;12.80;;;;;;;;;;5082131;28;20448;-70
2022/08/27 11:46:08;;;;;;;14.97;12.90;;;;;;;;;;5075183;28;20582;-69
2022/08/27 11:48:38;;;;;;;16.03;11.93;;;;;;;;;;5090220;28;20451;-70
2022/08/27 11:51:17;;;;;;;20.07;11.80;;;;;;;;;;5090527;28;20452;-71
2022/08/27 11:53:56;;;;;;;13.13;10.40;;;;;;;;;;5090276;28;20917;-71
2022/08/27 11:56:36;;;;;;;13.20;9.50;;;;;;;;;;5091351;28;20454;-71
2022/08/27 11:59:09;;;;;;;13.27;8.60;;;;;;;;;;5090715;28;20485;-70
2022/08/27 12:01:39;;;;;;;12.57;10.00;;;;;;;;;;5089948;28;20495;-70
2022/08/27 12:04:17;;;;;;;13.60;10.50;;;;;;;;;;5089710;28;20452;-69
2022/08/27 12:06:45;;;;;;;12.13;9.63;;;;;;;;;;5090597;28;20542;-71
2022/08/27 12:12:26;;;;;;;17.80;13.33;;;;;;;;;;5066005;28;20461;-71
2022/08/27 12:15:15;;;;;;;17.23;13.20;;;;;;;;;;5069253;28;20551;-70
2022/08/27 12:17:45;;;;;;;23.20;16.70;;;;;;;;;;5080391;28;20456;-69
2022/08/27 12:20:19;;;;;;;20.93;16.03;;;;;;;;;;5086996;28;20644;-70
2022/08/27 12:25:58;;;;;;;26.33;15.77;;;;;;;;;;5083721;28;20780;-71
2022/08/27 12:28:25;;;;;;;26.73;17.57;;;;;;;;;;5082863;28;20543;-70
2022/08/27 12:30:53;;;;;;;21.03;17.27;;;;;;;;;;5086369;27;20829;-71
2022/08/27 12:33:24;;;;;;;25.07;17.77;;;;;;;;;;5086843;27;20459;-70
2022/08/27 12:35:52;;;;;;;26.67;16.30;;;;;;;;;;5087658;28;20531;-71
2022/08/27 12:38:30;;;;;;;24.03;16.70;;;;;;;;;;5084097;28;20495;-71
2022/08/27 12:41:07;;;;;;;19.70;14.27;;;;;;;;;;5088427;28;20487;-69
2022/08/27 12:43:37;;;;;;;21.30;14.97;;;;;;;;;;5085010;28;20452;-69
2022/08/27 12:46:06;;;;;;;21.70;14.87;;;;;;;;;;5067784;28;20471;-69
2022/08/27 12:48:41;;;;;;;19.60;14.30;;;;;;;;;;5088462;28;20463;-71
2022/08/27 12:51:12;;;;;;;23.30;14.63;;;;;;;;;;5088815;28;20458;-70
2022/08/27 12:53:47;;;;;;;19.70;13.43;;;;;;;;;;5089390;28;20483;-70
2022/08/27 12:56:42;;;;;;;20.30;14.67;;;;;;;;;;5088040;28;20497;-70
2022/08/27 12:59:23;;;;;;;21.57;15.80;;;;;;;;;;5078717;28;20547;-69
2022/08/27 13:01:57;;;;;;;17.93;13.70;;;;;;;;;;5077342;28;20496;-72
2022/08/27 13:04:26;;;;;;;21.50;15.57;;;;;;;;;;5073252;28;20460;-70
2022/08/27 13:06:57;;;;;;;19.70;13.70;;;;;;;;;;5071939;28;20579;-70
2022/08/27 13:09:28;;;;;;;26.20;14.23;;;;;;;;;;5072904;28;20957;-71
2022/08/27 13:12:04;;;;;;;22.60;15.17;;;;;;;;;;5091048;28;20533;-70
2022/08/27 13:14:36;;;;;;;21.53;17.00;;;;;;;;;;5091222;28;20459;-70
2022/08/27 13:17:05;;;;;;;23.10;14.90;;;;;;;;;;5092238;28;20556;-70
2022/08/27 13:19:36;;;;;;;23.40;17.17;;;;;;;;;;5090181;28;20447;-69
2022/08/27 13:22:07;;;;;;;19.50;13.30;;;;;;;;;;5080155;28;20467;-69
2022/08/27 13:24:36;;;;;;;15.90;13.00;;;;;;;;;;5093073;28;20501;-69
2022/08/27 13:27:05;;;;;;;19.10;12.87;;;;;;;;;;5093304;28;20909;-69
2022/08/27 13:29:47;;;;;;;25.30;13.67;;;;;;;;;;5081569;28;20482;-70
2022/08/27 13:32:15;;;;;;;19.70;10.70;;;;;;;;;;5073980;28;20472;-69
2022/08/27 13:34:42;;;;;;;15.90;10.30;;;;;;;;;;5075566;28;20580;-69
2022/08/27 13:37:22;;;;;;;18.90;9.10;;;;;;;;;;5093618;28;20855;-71
2022/08/27 13:39:53;;;;;;;13.37;7.57;;;;;;;;;;5092554;28;20885;-71
2022/08/27 13:42:20;;;;;;;11.83;7.10;;;;;;;;;;5092119;28;20483;-70
2022/08/27 13:44:59;;;;;;;15.50;9.70;;;;;;;;;;5092447;28;20495;-70
2022/08/27 13:47:31;;;;;;;17.03;8.70;;;;;;;;;;5092784;28;20759;-70
2022/08/27 13:50:03;;;;;;;12.37;7.30;;;;;;;;;;5093874;28;20474;-70
2022/08/27 13:52:32;;;;;;;16.63;6.90;;;;;;;;;;5091903;28;20460;-71
2022/08/27 13:55:04;;;;;;;12.73;6.90;;;;;;;;;;5093557;28;20458;-71
2022/08/27 13:57:39;;;;;;;12.47;5.77;;;;;;;;;;5093235;28;20467;-71
2022/08/27 14:00:15;;;;;;;10.73;5.50;;;;;;;;;;5092144;28;20502;-70
2022/08/27 14:02:43;;;;;;;13.67;5.03;;;;;;;;;;5093690;28;20482;-71
2022/08/27 14:05:12;;;;;;;9.47;4.00;;;;;;;;;;5093293;28;20769;-71
2022/08/27 14:07:43;;;;;;;9.50;6.07;;;;;;;;;;5092466;28;20524;-72
2022/08/27 14:10:24;;;;;;;9.30;4.17;;;;;;;;;;5091028;28;20508;-72
2022/08/27 14:12:57;;;;;;;9.70;4.60;;;;;;;;;;5084474;28;20468;-72
2022/08/27 14:15:31;;;;;;;6.93;2.57;;;;;;;;;;5083598;28;20465;-72
2022/08/27 14:17:58;;;;;;;5.93;2.80;;;;;;;;;;5088806;28;20470;-72
2022/08/27 14:20:25;;;;;;;13.00;3.77;;;;;;;;;;5112509;28;20481;-72
2022/08/27 14:22:52;;;;;;;8.13;3.00;;;;;;;;;;5112235;28;20446;-72
2022/08/27 14:25:20;;;;;;;10.70;2.17;;;;;;;;;;5087266;28;20862;-72
2022/08/27 14:27:47;;;;;;;6.90;2.67;;;;;;;;;;5092482;28;20443;-72
2022/08/27 14:30:16;;;;;;;9.13;2.00;;;;;;;;;;5091816;28;20550;-72
2022/08/27 14:32:44;;;;;;;6.07;1.90;;;;;;;;;;5092889;28;20452;-72
2022/08/27 14:35:11;;;;;;;5.30;1.80;;;;;;;;;;5091213;28;20538;-72
2022/08/27 14:37:39;;;;;;;8.70;2.60;;;;;;;;;;5092471;28;20460;-72
2022/08/27 14:40:08;;;;;;;7.20;2.27;;;;;;;;;;5089282;28;20803;-73
2022/08/27 14:42:37;;;;;;;5.60;2.37;;;;;;;;;;5091532;28;20448;-72
2022/08/27 14:45:05;;;;;;;7.90;2.43;;;;;;;;;;5090997;28;20460;-72
2022/08/27 14:47:32;;;;;;;4.57;1.80;;;;;;;;;;5091323;28;20520;-72
2022/08/27 14:50:00;;;;;;;7.00;2.00;;;;;;;;;;5092046;28;21141;-72
2022/08/27 14:52:27;;;;;;;6.13;2.40;;;;;;;;;;5091718;28;20467;-72